sensor_id;sensor_type;location;lat;lon;timestamp;temperature;humidity
25582;DHT22;13462;50.764;4.332;2022-07-26T00:01:54;16.90;99.90
25582;DHT22;13462;50.764;4.332;2022-07-26T00:04:20;16.80;99.90
25582;DHT22;13462;50.764;4.332;2022-07-26T00:06:46;16.80;99.90
25582;DHT22;13462;50.764;4.332;2022-07-26T00:09:12;16.70;99.90
25582;DHT22;13462;50.764;4.332;2022-07-26T00:11:37;16.80;99.90
25582;DHT22;13462;50.764;4.332;2022-07-26T00:14:05;16.80;99.90
25582;DHT22;13462;50.764;4.332;2022-07-26T00:16:30;16.90;99.90
25582;DHT22;13462;50.764;4.332;2022-07-26T00:18:56;16.70;99.90
25582;DHT22;13462;50.764;4.332;2022-07-26T00:21:22;16.70;99.90
25582;DHT22;13462;50.764;4.332;2022-07-26T00:23:48;16.80;99.90
25582;DHT22;13462;50.764;4.332;2022-07-26T00:26:14;16.70;99.90
25582;DHT22;13462;50.764;4.332;2022-07-26T00:28:39;16.70;99.90
25582;DHT22;13462;50.764;4.332;2022-07-26T00:31:08;16.60;99.90
25582;DHT22;13462;50.764;4.332;2022-07-26T00:33:36;16.60;99.90
25582;DHT22;13462;50.764;4.332;2022-07-26T00:36:02;16.50;99.90
25582;DHT22;13462;50.764;4.332;2022-07-26T00:38:27;16.50;99.90
25582;DHT22;13462;50.764;4.332;2022-07-26T00:40:53;16.50;99.90
25582;DHT22;13462;50.764;4.332;2022-07-26T00:43:19;16.50;99.90
25582;DHT22;13462;50.764;4.332;2022-07-26T00:45:44;16.60;99.90
25582;DHT22;13462;50.764;4.332;2022-07-26T00:48:10;16.60;99.90
25582;DHT22;13462;50.764;4.332;2022-07-26T00:50:35;16.60;99.90
25582;DHT22;13462;50.764;4.332;2022-07-26T00:53:01;16.60;99.90
25582;DHT22;13462;50.764;4.332;2022-07-26T00:55:27;16.70;99.90
25582;DHT22;13462;50.764;4.332;2022-07-26T00:57:53;16.60;99.90
25582;DHT22;13462;50.764;4.332;2022-07-26T01:00:21;16.60;99.90
25582;DHT22;13462;50.764;4.332;2022-07-26T01:02:48;16.60;99.90
25582;DHT22;13462;50.764;4.332;2022-07-26T01:05:14;16.60;99.90
25582;DHT22;13462;50.764;4.332;2022-07-26T01:07:39;16.60;99.90
25582;DHT22;13462;50.764;4.332;2022-07-26T01:10:08;16.60;99.90
25582;DHT22;13462;50.764;4.332;2022-07-26T01:12:37;16.60;99.90
25582;DHT22;13462;50.764;4.332;2022-07-26T01:15:03;16.60;99.90
25582;DHT22;13462;50.764;4.332;2022-07-26T01:17:28;16.60;99.90
25582;DHT22;13462;50.764;4.332;2022-07-26T01:19:54;16.60;99.90
25582;DHT22;13462;50.764;4.332;2022-07-26T01:22:20;16.60;99.90
25582;DHT22;13462;50.764;4.332;2022-07-26T01:24:46;16.60;99.90
25582;DHT22;13462;50.764;4.332;2022-07-26T01:27:11;16.70;99.90
25582;DHT22;13462;50.764;4.332;2022-07-26T01:29:37;16.70;99.90
25582;DHT22;13462;50.764;4.332;2022-07-26T01:32:04;16.60;99.90
25582;DHT22;13462;50.764;4.332;2022-07-26T01:34:30;16.60;99.90
25582;DHT22;13462;50.764;4.332;2022-07-26T01:36:56;16.70;99.90
25582;DHT22;13462;50.764;4.332;2022-07-26T01:39:22;16.80;99.90
25582;DHT22;13462;50.764;4.332;2022-07-26T01:41:47;16.90;99.90
25582;DHT22;13462;50.764;4.332;2022-07-26T01:44:13;17.00;99.90
25582;DHT22;13462;50.764;4.332;2022-07-26T01:46:38;17.00;99.90
25582;DHT22;13462;50.764;4.332;2022-07-26T01:49:04;17.00;99.90
25582;DHT22;13462;50.764;4.332;2022-07-26T01:51:32;17.00;99.90
25582;DHT22;13462;50.764;4.332;2022-07-26T01:53:59;16.90;99.90
25582;DHT22;13462;50.764;4.332;2022-07-26T01:56:24;16.90;99.90
25582;DHT22;13462;50.764;4.332;2022-07-26T01:58:50;17.00;99.90
25582;DHT22;13462;50.764;4.332;2022-07-26T02:01:16;17.00;99.90
25582;DHT22;13462;50.764;4.332;2022-07-26T02:03:42;17.00;99.90
25582;DHT22;13462;50.764;4.332;2022-07-26T02:06:07;16.90;99.90
25582;DHT22;13462;50.764;4.332;2022-07-26T02:08:33;16.90;99.90
25582;DHT22;13462;50.764;4.332;2022-07-26T02:10:59;17.00;99.90
25582;DHT22;13462;50.764;4.332;2022-07-26T02:13:25;16.90;99.90
25582;DHT22;13462;50.764;4.332;2022-07-26T02:15:51;16.90;99.90
25582;DHT22;13462;50.764;4.332;2022-07-26T02:18:16;16.90;99.90
25582;DHT22;13462;50.764;4.332;2022-07-26T02:20:42;17.00;99.90
25582;DHT22;13462;50.764;4.332;2022-07-26T02:23:08;17.00;99.90
25582;DHT22;13462;50.764;4.332;2022-07-26T02:25:33;17.10;99.90
25582;DHT22;13462;50.764;4.332;2022-07-26T02:27:59;17.10;99.90
25582;DHT22;13462;50.764;4.332;2022-07-26T02:30:26;17.00;99.90
25582;DHT22;13462;50.764;4.332;2022-07-26T02:32:51;17.10;99.90
25582;DHT22;13462;50.764;4.332;2022-07-26T02:35:17;17.00;99.90
25582;DHT22;13462;50.764;4.332;2022-07-26T02:37:43;17.10;99.90
25582;DHT22;13462;50.764;4.332;2022-07-26T02:40:09;17.00;99.90
25582;DHT22;13462;50.764;4.332;2022-07-26T02:42:35;17.00;99.90
25582;DHT22;13462;50.764;4.332;2022-07-26T02:45:00;16.90;99.90
25582;DHT22;13462;50.764;4.332;2022-07-26T02:47:26;17.00;99.90
25582;DHT22;13462;50.764;4.332;2022-07-26T02:49:51;16.90;99.90
25582;DHT22;13462;50.764;4.332;2022-07-26T02:52:17;17.00;99.90
25582;DHT22;13462;50.764;4.332;2022-07-26T02:54:43;17.00;99.90
25582;DHT22;13462;50.764;4.332;2022-07-26T02:57:08;17.10;99.90
25582;DHT22;13462;50.764;4.332;2022-07-26T02:59:35;17.20;99.90
25582;DHT22;13462;50.764;4.332;2022-07-26T03:02:01;17.30;99.90
25582;DHT22;13462;50.764;4.332;2022-07-26T03:04:26;17.20;99.90
25582;DHT22;13462;50.764;4.332;2022-07-26T03:06:52;17.30;99.90
25582;DHT22;13462;50.764;4.332;2022-07-26T03:09:18;17.20;99.90
25582;DHT22;13462;50.764;4.332;2022-07-26T03:11:43;17.30;99.90
25582;DHT22;13462;50.764;4.332;2022-07-26T03:14:09;17.20;99.90
25582;DHT22;13462;50.764;4.332;2022-07-26T03:16:34;17.20;99.90
25582;DHT22;13462;50.764;4.332;2022-07-26T03:19:00;17.30;99.90
25582;DHT22;13462;50.764;4.332;2022-07-26T03:21:26;17.40;99.90
25582;DHT22;13462;50.764;4.332;2022-07-26T03:23:52;17.30;99.90
25582;DHT22;13462;50.764;4.332;2022-07-26T03:26:18;17.20;99.90
25582;DHT22;13462;50.764;4.332;2022-07-26T03:28:44;17.20;99.90
25582;DHT22;13462;50.764;4.332;2022-07-26T03:31:11;17.20;99.90
25582;DHT22;13462;50.764;4.332;2022-07-26T03:33:37;17.00;99.90
25582;DHT22;13462;50.764;4.332;2022-07-26T03:36:04;16.90;99.90
25582;DHT22;13462;50.764;4.332;2022-07-26T03:38:29;16.90;99.90
25582;DHT22;13462;50.764;4.332;2022-07-26T03:40:55;16.90;99.90
25582;DHT22;13462;50.764;4.332;2022-07-26T03:43:21;16.90;99.90
25582;DHT22;13462;50.764;4.332;2022-07-26T03:45:46;16.80;99.90
25582;DHT22;13462;50.764;4.332;2022-07-26T03:48:12;16.80;99.90
25582;DHT22;13462;50.764;4.332;2022-07-26T03:50:37;16.80;99.90
25582;DHT22;13462;50.764;4.332;2022-07-26T03:53:03;16.80;99.90
25582;DHT22;13462;50.764;4.332;2022-07-26T03:55:29;17.00;99.90
25582;DHT22;13462;50.764;4.332;2022-07-26T03:58:13;17.00;99.90
25582;DHT22;13462;50.764;4.332;2022-07-26T04:00:39;16.80;99.90
25582;DHT22;13462;50.764;4.332;2022-07-26T04:03:04;16.80;99.90
25582;DHT22;13462;50.764;4.332;2022-07-26T04:05:30;16.80;99.90
25582;DHT22;13462;50.764;4.332;2022-07-26T04:07:56;16.70;99.90
25582;DHT22;13462;50.764;4.332;2022-07-26T04:10:22;16.60;99.90
25582;DHT22;13462;50.764;4.332;2022-07-26T04:12:48;16.50;99.90
25582;DHT22;13462;50.764;4.332;2022-07-26T04:15:14;16.40;99.90
25582;DHT22;13462;50.764;4.332;2022-07-26T04:17:41;16.50;99.90
25582;DHT22;13462;50.764;4.332;2022-07-26T04:20:08;16.40;99.90
25582;DHT22;13462;50.764;4.332;2022-07-26T04:22:36;16.40;99.90
25582;DHT22;13462;50.764;4.332;2022-07-26T04:25:02;16.40;99.90
25582;DHT22;13462;50.764;4.332;2022-07-26T04:27:28;16.50;99.90
25582;DHT22;13462;50.764;4.332;2022-07-26T04:29:54;16.40;99.90
25582;DHT22;13462;50.764;4.332;2022-07-26T04:32:20;16.40;99.90
25582;DHT22;13462;50.764;4.332;2022-07-26T04:34:45;16.50;99.90
25582;DHT22;13462;50.764;4.332;2022-07-26T04:37:11;16.50;99.90
25582;DHT22;13462;50.764;4.332;2022-07-26T04:39:36;16.50;99.90
25582;DHT22;13462;50.764;4.332;2022-07-26T04:42:02;16.50;99.90
25582;DHT22;13462;50.764;4.332;2022-07-26T04:44:28;16.50;99.90
25582;DHT22;13462;50.764;4.332;2022-07-26T04:46:53;16.40;99.90
25582;DHT22;13462;50.764;4.332;2022-07-26T04:49:19;16.50;99.90
25582;DHT22;13462;50.764;4.332;2022-07-26T04:51:44;16.50;99.90
25582;DHT22;13462;50.764;4.332;2022-07-26T04:54:10;16.40;99.90
25582;DHT22;13462;50.764;4.332;2022-07-26T04:56:36;16.40;99.90
25582;DHT22;13462;50.764;4.332;2022-07-26T04:59:01;16.40;99.90
25582;DHT22;13462;50.764;4.332;2022-07-26T05:01:27;16.40;99.90
25582;DHT22;13462;50.764;4.332;2022-07-26T05:03:52;16.40;99.90
25582;DHT22;13462;50.764;4.332;2022-07-26T05:06:18;16.40;99.90
25582;DHT22;13462;50.764;4.332;2022-07-26T05:08:43;16.50;99.90
25582;DHT22;13462;50.764;4.332;2022-07-26T05:11:10;16.50;99.90
25582;DHT22;13462;50.764;4.332;2022-07-26T05:13:35;16.60;99.90
25582;DHT22;13462;50.764;4.332;2022-07-26T05:16:01;16.80;99.90
25582;DHT22;13462;50.764;4.332;2022-07-26T05:18:27;16.90;99.90
25582;DHT22;13462;50.764;4.332;2022-07-26T05:20:53;17.00;99.90
25582;DHT22;13462;50.764;4.332;2022-07-26T05:23:19;17.30;99.90
25582;DHT22;13462;50.764;4.332;2022-07-26T05:25:45;17.20;99.90
25582;DHT22;13462;50.764;4.332;2022-07-26T05:28:11;17.30;99.90
25582;DHT22;13462;50.764;4.332;2022-07-26T05:30:36;17.50;99.90
25582;DHT22;13462;50.764;4.332;2022-07-26T05:33:02;17.70;99.90
25582;DHT22;13462;50.764;4.332;2022-07-26T05:35:28;17.80;99.90
25582;DHT22;13462;50.764;4.332;2022-07-26T05:37:53;17.80;99.90
25582;DHT22;13462;50.764;4.332;2022-07-26T05:40:19;17.80;99.90
25582;DHT22;13462;50.764;4.332;2022-07-26T05:42:45;18.00;99.90
25582;DHT22;13462;50.764;4.332;2022-07-26T05:45:10;18.00;99.90
25582;DHT22;13462;50.764;4.332;2022-07-26T05:47:36;18.20;99.90
25582;DHT22;13462;50.764;4.332;2022-07-26T05:50:03;18.20;99.90
25582;DHT22;13462;50.764;4.332;2022-07-26T05:52:29;18.20;99.90
25582;DHT22;13462;50.764;4.332;2022-07-26T05:54:54;18.50;99.90
25582;DHT22;13462;50.764;4.332;2022-07-26T05:57:20;19.10;99.90
25582;DHT22;13462;50.764;4.332;2022-07-26T05:59:45;19.70;99.90
25582;DHT22;13462;50.764;4.332;2022-07-26T06:02:11;20.70;99.90
25582;DHT22;13462;50.764;4.332;2022-07-26T06:04:37;20.80;99.90
25582;DHT22;13462;50.764;4.332;2022-07-26T06:07:03;20.40;99.90
25582;DHT22;13462;50.764;4.332;2022-07-26T06:09:29;20.30;99.90
25582;DHT22;13462;50.764;4.332;2022-07-26T06:11:54;20.20;99.90
25582;DHT22;13462;50.764;4.332;2022-07-26T06:14:20;20.10;99.90
25582;DHT22;13462;50.764;4.332;2022-07-26T06:16:47;19.80;99.90
25582;DHT22;13462;50.764;4.332;2022-07-26T06:19:13;19.90;99.90
25582;DHT22;13462;50.764;4.332;2022-07-26T06:21:38;19.70;99.90
25582;DHT22;13462;50.764;4.332;2022-07-26T06:24:04;19.70;99.90
25582;DHT22;13462;50.764;4.332;2022-07-26T06:26:30;19.50;99.90
25582;DHT22;13462;50.764;4.332;2022-07-26T06:28:55;19.50;99.90
25582;DHT22;13462;50.764;4.332;2022-07-26T06:31:21;19.60;99.90
25582;DHT22;13462;50.764;4.332;2022-07-26T06:33:47;19.50;99.90
25582;DHT22;13462;50.764;4.332;2022-07-26T06:36:13;19.50;99.90
25582;DHT22;13462;50.764;4.332;2022-07-26T06:38:39;19.40;99.90
25582;DHT22;13462;50.764;4.332;2022-07-26T06:41:04;19.50;99.90
25582;DHT22;13462;50.764;4.332;2022-07-26T06:43:30;19.60;99.90
25582;DHT22;13462;50.764;4.332;2022-07-26T06:45:56;19.50;99.90
25582;DHT22;13462;50.764;4.332;2022-07-26T06:48:21;19.50;99.90
25582;DHT22;13462;50.764;4.332;2022-07-26T06:50:47;19.30;99.90
25582;DHT22;13462;50.764;4.332;2022-07-26T06:53:12;19.30;99.90
25582;DHT22;13462;50.764;4.332;2022-07-26T06:55:39;19.30;99.90
25582;DHT22;13462;50.764;4.332;2022-07-26T06:58:05;19.20;99.90
25582;DHT22;13462;50.764;4.332;2022-07-26T07:00:30;19.10;99.90
25582;DHT22;13462;50.764;4.332;2022-07-26T07:02:56;19.10;99.90
25582;DHT22;13462;50.764;4.332;2022-07-26T07:05:21;19.20;99.90
25582;DHT22;13462;50.764;4.332;2022-07-26T07:07:47;19.30;99.90
25582;DHT22;13462;50.764;4.332;2022-07-26T07:10:12;19.40;99.90
25582;DHT22;13462;50.764;4.332;2022-07-26T07:12:38;19.30;99.90
25582;DHT22;13462;50.764;4.332;2022-07-26T07:15:05;19.10;99.90
25582;DHT22;13462;50.764;4.332;2022-07-26T07:17:31;19.00;99.90
25582;DHT22;13462;50.764;4.332;2022-07-26T07:19:56;19.20;99.90
25582;DHT22;13462;50.764;4.332;2022-07-26T07:22:22;19.30;99.90
25582;DHT22;13462;50.764;4.332;2022-07-26T07:24:47;19.20;99.90
25582;DHT22;13462;50.764;4.332;2022-07-26T07:27:13;19.40;99.90
25582;DHT22;13462;50.764;4.332;2022-07-26T07:29:39;19.60;99.90
25582;DHT22;13462;50.764;4.332;2022-07-26T07:32:05;19.70;99.90
25582;DHT22;13462;50.764;4.332;2022-07-26T07:34:31;20.00;99.90
25582;DHT22;13462;50.764;4.332;2022-07-26T07:36:57;20.00;99.90
25582;DHT22;13462;50.764;4.332;2022-07-26T07:39:22;19.90;99.90
25582;DHT22;13462;50.764;4.332;2022-07-26T07:41:48;20.00;99.90
25582;DHT22;13462;50.764;4.332;2022-07-26T07:44:14;20.00;99.90
25582;DHT22;13462;50.764;4.332;2022-07-26T07:46:40;20.00;99.90
25582;DHT22;13462;50.764;4.332;2022-07-26T07:49:05;20.00;99.90
25582;DHT22;13462;50.764;4.332;2022-07-26T07:51:31;20.20;99.90
25582;DHT22;13462;50.764;4.332;2022-07-26T07:53:58;19.90;99.90
25582;DHT22;13462;50.764;4.332;2022-07-26T07:56:24;19.90;99.90
25582;DHT22;13462;50.764;4.332;2022-07-26T07:58:50;20.00;99.90
25582;DHT22;13462;50.764;4.332;2022-07-26T08:01:16;20.10;99.90
25582;DHT22;13462;50.764;4.332;2022-07-26T08:03:41;20.00;99.90
25582;DHT22;13462;50.764;4.332;2022-07-26T08:06:07;19.90;99.90
25582;DHT22;13462;50.764;4.332;2022-07-26T08:08:34;19.70;99.90
25582;DHT22;13462;50.764;4.332;2022-07-26T08:11:00;19.90;99.90
25582;DHT22;13462;50.764;4.332;2022-07-26T08:13:26;19.60;99.90
25582;DHT22;13462;50.764;4.332;2022-07-26T08:15:53;19.70;99.90
25582;DHT22;13462;50.764;4.332;2022-07-26T08:18:20;19.60;99.90
25582;DHT22;13462;50.764;4.332;2022-07-26T08:20:46;19.60;99.90
25582;DHT22;13462;50.764;4.332;2022-07-26T08:23:12;19.80;99.90
25582;DHT22;13462;50.764;4.332;2022-07-26T08:25:38;19.90;99.90
25582;DHT22;13462;50.764;4.332;2022-07-26T08:28:03;19.90;99.90
25582;DHT22;13462;50.764;4.332;2022-07-26T08:30:30;19.70;99.90
25582;DHT22;13462;50.764;4.332;2022-07-26T08:32:56;19.70;99.90
25582;DHT22;13462;50.764;4.332;2022-07-26T08:35:21;20.00;99.90
25582;DHT22;13462;50.764;4.332;2022-07-26T08:37:47;20.10;99.90
25582;DHT22;13462;50.764;4.332;2022-07-26T08:40:13;20.10;99.90
25582;DHT22;13462;50.764;4.332;2022-07-26T08:42:38;20.20;99.90
25582;DHT22;13462;50.764;4.332;2022-07-26T08:45:04;20.50;99.90
25582;DHT22;13462;50.764;4.332;2022-07-26T08:47:30;20.40;99.90
25582;DHT22;13462;50.764;4.332;2022-07-26T08:49:56;20.80;99.90
25582;DHT22;13462;50.764;4.332;2022-07-26T08:52:21;21.20;99.90
25582;DHT22;13462;50.764;4.332;2022-07-26T08:54:50;21.60;99.90
25582;DHT22;13462;50.764;4.332;2022-07-26T08:57:16;21.70;99.90
25582;DHT22;13462;50.764;4.332;2022-07-26T08:59:42;22.00;99.90
25582;DHT22;13462;50.764;4.332;2022-07-26T09:02:11;22.00;99.90
25582;DHT22;13462;50.764;4.332;2022-07-26T09:04:42;22.00;99.90
25582;DHT22;13462;50.764;4.332;2022-07-26T09:07:11;22.40;99.90
25582;DHT22;13462;50.764;4.332;2022-07-26T09:09:54;22.30;99.90
25582;DHT22;13462;50.764;4.332;2022-07-26T09:12:21;22.50;99.90
25582;DHT22;13462;50.764;4.332;2022-07-26T09:14:48;22.30;99.90
25582;DHT22;13462;50.764;4.332;2022-07-26T09:17:16;22.60;99.90
25582;DHT22;13462;50.764;4.332;2022-07-26T09:19:41;23.30;99.90
25582;DHT22;13462;50.764;4.332;2022-07-26T09:22:13;23.80;99.90
25582;DHT22;13462;50.764;4.332;2022-07-26T09:24:40;24.00;99.90
25582;DHT22;13462;50.764;4.332;2022-07-26T09:27:08;24.20;99.90
25582;DHT22;13462;50.764;4.332;2022-07-26T09:29:51;24.20;99.90
25582;DHT22;13462;50.764;4.332;2022-07-26T09:32:21;25.30;99.90
25582;DHT22;13462;50.764;4.332;2022-07-26T09:34:53;26.20;97.90
25582;DHT22;13462;50.764;4.332;2022-07-26T09:37:38;26.00;96.60
25582;DHT22;13462;50.764;4.332;2022-07-26T09:40:09;26.90;95.70
25582;DHT22;13462;50.764;4.332;2022-07-26T09:42:35;28.00;93.50
25582;DHT22;13462;50.764;4.332;2022-07-26T09:45:02;29.20;91.50
25582;DHT22;13462;50.764;4.332;2022-07-26T09:47:38;30.40;90.50
25582;DHT22;13462;50.764;4.332;2022-07-26T09:50:16;30.10;87.40
25582;DHT22;13462;50.764;4.332;2022-07-26T09:55:25;29.60;85.60
25582;DHT22;13462;50.764;4.332;2022-07-26T09:57:51;28.70;87.50
25582;DHT22;13462;50.764;4.332;2022-07-26T10:00:17;28.00;90.20
25582;DHT22;13462;50.764;4.332;2022-07-26T10:02:43;27.70;91.30
25582;DHT22;13462;50.764;4.332;2022-07-26T10:05:09;27.20;91.20
25582;DHT22;13462;50.764;4.332;2022-07-26T10:07:36;28.50;90.70
25582;DHT22;13462;50.764;4.332;2022-07-26T10:10:39;30.00;84.00
25582;DHT22;13462;50.764;4.332;2022-07-26T10:13:06;30.80;79.20
25582;DHT22;13462;50.764;4.332;2022-07-26T10:18:05;29.70;82.20
25582;DHT22;13462;50.764;4.332;2022-07-26T10:20:42;29.50;81.50
25582;DHT22;13462;50.764;4.332;2022-07-26T10:23:40;29.60;81.70
25582;DHT22;13462;50.764;4.332;2022-07-26T10:26:09;30.60;77.90
25582;DHT22;13462;50.764;4.332;2022-07-26T10:28:35;30.30;75.20
25582;DHT22;13462;50.764;4.332;2022-07-26T10:33:50;31.50;72.60
25582;DHT22;13462;50.764;4.332;2022-07-26T10:36:29;31.70;71.80
25582;DHT22;13462;50.764;4.332;2022-07-26T10:39:06;32.90;74.80
25582;DHT22;13462;50.764;4.332;2022-07-26T10:44:21;31.40;74.10
25582;DHT22;13462;50.764;4.332;2022-07-26T10:49:53;32.10;71.70
25582;DHT22;13462;50.764;4.332;2022-07-26T10:52:30;32.70;71.00
25582;DHT22;13462;50.764;4.332;2022-07-26T10:59:51;30.20;73.80
25582;DHT22;13462;50.764;4.332;2022-07-26T11:02:18;29.20;74.40
25582;DHT22;13462;50.764;4.332;2022-07-26T11:04:45;28.90;75.60
25582;DHT22;13462;50.764;4.332;2022-07-26T11:07:11;28.40;76.00
25582;DHT22;13462;50.764;4.332;2022-07-26T11:09:37;28.10;75.70
25582;DHT22;13462;50.764;4.332;2022-07-26T11:12:17;27.30;79.20
25582;DHT22;13462;50.764;4.332;2022-07-26T11:14:43;26.80;81.80
25582;DHT22;13462;50.764;4.332;2022-07-26T11:19:50;26.00;84.50
25582;DHT22;13462;50.764;4.332;2022-07-26T11:22:16;26.20;84.60
25582;DHT22;13462;50.764;4.332;2022-07-26T11:24:42;26.10;85.30
25582;DHT22;13462;50.764;4.332;2022-07-26T11:27:08;26.30;85.40
25582;DHT22;13462;50.764;4.332;2022-07-26T11:29:35;26.50;83.70
25582;DHT22;13462;50.764;4.332;2022-07-26T11:32:03;26.40;84.50
25582;DHT22;13462;50.764;4.332;2022-07-26T11:34:32;26.20;86.10
25582;DHT22;13462;50.764;4.332;2022-07-26T11:37:01;26.30;83.80
25582;DHT22;13462;50.764;4.332;2022-07-26T11:39:29;25.90;85.10
25582;DHT22;13462;50.764;4.332;2022-07-26T11:42:04;25.80;85.80
25582;DHT22;13462;50.764;4.332;2022-07-26T11:44:30;25.60;86.80
25582;DHT22;13462;50.764;4.332;2022-07-26T11:46:56;26.50;90.00
25582;DHT22;13462;50.764;4.332;2022-07-26T11:49:24;27.50;82.00
25582;DHT22;13462;50.764;4.332;2022-07-26T11:51:53;28.80;82.40
25582;DHT22;13462;50.764;4.332;2022-07-26T11:54:21;29.10;76.10
25582;DHT22;13462;50.764;4.332;2022-07-26T11:56:51;29.90;77.90
25582;DHT22;13462;50.764;4.332;2022-07-26T11:59:18;29.90;73.50
25582;DHT22;13462;50.764;4.332;2022-07-26T12:01:45;29.60;72.00
25582;DHT22;13462;50.764;4.332;2022-07-26T12:04:27;29.40;73.00
25582;DHT22;13462;50.764;4.332;2022-07-26T12:06:55;29.50;76.90
25582;DHT22;13462;50.764;4.332;2022-07-26T12:09:41;30.30;75.50
25582;DHT22;13462;50.764;4.332;2022-07-26T12:14:55;30.30;76.90
25582;DHT22;13462;50.764;4.332;2022-07-26T12:17:21;30.10;77.20
25582;DHT22;13462;50.764;4.332;2022-07-26T12:19:46;29.80;75.90
25582;DHT22;13462;50.764;4.332;2022-07-26T12:22:17;29.50;76.70
25582;DHT22;13462;50.764;4.332;2022-07-26T12:27:22;29.00;77.10
25582;DHT22;13462;50.764;4.332;2022-07-26T12:29:50;29.10;76.50
25582;DHT22;13462;50.764;4.332;2022-07-26T12:35:09;30.10;79.80
25582;DHT22;13462;50.764;4.332;2022-07-26T12:40:14;31.10;77.20
25582;DHT22;13462;50.764;4.332;2022-07-26T12:45:29;31.40;78.30
25582;DHT22;13462;50.764;4.332;2022-07-26T12:47:56;31.80;77.50
25582;DHT22;13462;50.764;4.332;2022-07-26T12:50:24;32.00;76.60
25582;DHT22;13462;50.764;4.332;2022-07-26T12:52:51;32.30;74.20
25582;DHT22;13462;50.764;4.332;2022-07-26T12:55:18;32.70;73.60
25582;DHT22;13462;50.764;4.332;2022-07-26T12:57:46;32.30;72.60
25582;DHT22;13462;50.764;4.332;2022-07-26T13:00:13;31.50;75.50
25582;DHT22;13462;50.764;4.332;2022-07-26T13:02:41;30.90;75.70
25582;DHT22;13462;50.764;4.332;2022-07-26T13:05:08;30.30;77.40
25582;DHT22;13462;50.764;4.332;2022-07-26T13:07:34;29.90;78.00
25582;DHT22;13462;50.764;4.332;2022-07-26T13:10:00;29.20;81.50
25582;DHT22;13462;50.764;4.332;2022-07-26T13:12:26;28.70;83.00
25582;DHT22;13462;50.764;4.332;2022-07-26T13:14:52;28.40;83.30
25582;DHT22;13462;50.764;4.332;2022-07-26T13:17:18;28.10;83.70
25582;DHT22;13462;50.764;4.332;2022-07-26T13:19:43;28.20;84.20
25582;DHT22;13462;50.764;4.332;2022-07-26T13:22:09;28.20;84.10
25582;DHT22;13462;50.764;4.332;2022-07-26T13:24:36;28.20;83.60
25582;DHT22;13462;50.764;4.332;2022-07-26T13:27:02;27.80;83.20
25582;DHT22;13462;50.764;4.332;2022-07-26T13:29:29;27.70;84.20
25582;DHT22;13462;50.764;4.332;2022-07-26T13:31:54;27.30;83.00
25582;DHT22;13462;50.764;4.332;2022-07-26T13:34:20;27.00;84.10
25582;DHT22;13462;50.764;4.332;2022-07-26T13:36:48;26.60;85.90
25582;DHT22;13462;50.764;4.332;2022-07-26T13:39:14;26.20;86.80
25582;DHT22;13462;50.764;4.332;2022-07-26T13:41:40;25.80;88.60
25582;DHT22;13462;50.764;4.332;2022-07-26T13:44:06;25.70;88.40
25582;DHT22;13462;50.764;4.332;2022-07-26T13:46:32;25.60;87.70
25582;DHT22;13462;50.764;4.332;2022-07-26T13:49:00;25.40;87.30
25582;DHT22;13462;50.764;4.332;2022-07-26T13:51:28;25.10;89.50
25582;DHT22;13462;50.764;4.332;2022-07-26T13:54:15;25.20;90.20
25582;DHT22;13462;50.764;4.332;2022-07-26T13:56:42;25.10;91.30
25582;DHT22;13462;50.764;4.332;2022-07-26T13:59:08;25.30;91.60
25582;DHT22;13462;50.764;4.332;2022-07-26T14:01:34;25.70;90.50
25582;DHT22;13462;50.764;4.332;2022-07-26T14:04:01;25.80;89.90
25582;DHT22;13462;50.764;4.332;2022-07-26T14:06:28;26.10;90.60
25582;DHT22;13462;50.764;4.332;2022-07-26T14:08:54;26.20;90.20
25582;DHT22;13462;50.764;4.332;2022-07-26T14:11:19;26.10;89.50
25582;DHT22;13462;50.764;4.332;2022-07-26T14:13:45;25.90;89.60
25582;DHT22;13462;50.764;4.332;2022-07-26T14:16:11;26.00;90.30
25582;DHT22;13462;50.764;4.332;2022-07-26T14:18:36;25.90;90.00
25582;DHT22;13462;50.764;4.332;2022-07-26T14:21:02;25.70;88.70
25582;DHT22;13462;50.764;4.332;2022-07-26T14:23:28;25.60;90.10
25582;DHT22;13462;50.764;4.332;2022-07-26T14:25:54;25.30;90.90
25582;DHT22;13462;50.764;4.332;2022-07-26T14:28:20;25.40;90.50
25582;DHT22;13462;50.764;4.332;2022-07-26T14:30:45;25.30;91.20
25582;DHT22;13462;50.764;4.332;2022-07-26T14:33:11;25.00;90.70
25582;DHT22;13462;50.764;4.332;2022-07-26T14:35:37;24.90;91.20
25582;DHT22;13462;50.764;4.332;2022-07-26T14:38:02;24.90;91.40
25582;DHT22;13462;50.764;4.332;2022-07-26T14:40:28;25.00;91.50
25582;DHT22;13462;50.764;4.332;2022-07-26T14:42:53;25.30;91.80
25582;DHT22;13462;50.764;4.332;2022-07-26T14:45:19;25.20;90.60
25582;DHT22;13462;50.764;4.332;2022-07-26T14:47:45;25.30;91.50
25582;DHT22;13462;50.764;4.332;2022-07-26T14:50:11;25.10;90.90
25582;DHT22;13462;50.764;4.332;2022-07-26T14:52:44;24.90;91.30
25582;DHT22;13462;50.764;4.332;2022-07-26T14:55:10;25.00;91.30
25582;DHT22;13462;50.764;4.332;2022-07-26T14:57:37;25.20;90.90
25582;DHT22;13462;50.764;4.332;2022-07-26T15:00:04;25.10;90.80
25582;DHT22;13462;50.764;4.332;2022-07-26T15:02:31;24.90;90.30
25582;DHT22;13462;50.764;4.332;2022-07-26T15:04:56;24.80;92.10
25582;DHT22;13462;50.764;4.332;2022-07-26T15:07:22;24.80;91.50
25582;DHT22;13462;50.764;4.332;2022-07-26T15:09:48;24.90;91.50
25582;DHT22;13462;50.764;4.332;2022-07-26T15:12:13;24.90;91.40
25582;DHT22;13462;50.764;4.332;2022-07-26T15:14:39;24.90;91.50
25582;DHT22;13462;50.764;4.332;2022-07-26T15:17:09;25.00;91.10
25582;DHT22;13462;50.764;4.332;2022-07-26T15:19:35;24.80;92.40
25582;DHT22;13462;50.764;4.332;2022-07-26T15:22:00;24.90;91.60
25582;DHT22;13462;50.764;4.332;2022-07-26T15:24:26;25.10;92.10
25582;DHT22;13462;50.764;4.332;2022-07-26T15:26:53;25.20;91.70
25582;DHT22;13462;50.764;4.332;2022-07-26T15:29:18;25.00;91.10
25582;DHT22;13462;50.764;4.332;2022-07-26T15:31:46;24.90;92.30
25582;DHT22;13462;50.764;4.332;2022-07-26T15:34:12;24.90;92.50
25582;DHT22;13462;50.764;4.332;2022-07-26T15:36:37;24.80;92.60
25582;DHT22;13462;50.764;4.332;2022-07-26T15:39:03;24.70;91.90
25582;DHT22;13462;50.764;4.332;2022-07-26T15:41:29;24.50;92.10
25582;DHT22;13462;50.764;4.332;2022-07-26T15:43:54;24.20;93.00
25582;DHT22;13462;50.764;4.332;2022-07-26T15:46:20;23.90;93.50
25582;DHT22;13462;50.764;4.332;2022-07-26T15:48:45;23.90;94.30
25582;DHT22;13462;50.764;4.332;2022-07-26T15:51:13;24.10;93.10
25582;DHT22;13462;50.764;4.332;2022-07-26T15:53:38;24.20;92.90
25582;DHT22;13462;50.764;4.332;2022-07-26T15:56:06;24.30;93.50
25582;DHT22;13462;50.764;4.332;2022-07-26T15:58:32;24.60;92.20
25582;DHT22;13462;50.764;4.332;2022-07-26T16:00:57;24.50;92.00
25582;DHT22;13462;50.764;4.332;2022-07-26T16:03:23;24.20;92.80